createdAt,value
2023-01-23T00:00:17.283Z,17.98
2023-01-23T00:02:45.944Z,16.92
2023-01-23T00:05:14.633Z,17.38
2023-01-23T00:07:43.029Z,17.70
2023-01-23T00:10:14.868Z,15.63
2023-01-23T00:12:44.841Z,16.63
2023-01-23T00:15:14.923Z,17.27
2023-01-23T00:17:45.190Z,15.50
2023-01-23T00:20:14.414Z,15.00
2023-01-23T00:22:42.972Z,15.80
2023-01-23T00:25:11.643Z,15.77
2023-01-23T00:27:40.077Z,16.15
2023-01-23T00:30:09.859Z,16.05
2023-01-23T00:32:39.630Z,15.48
2023-01-23T00:35:08.761Z,15.85
2023-01-23T00:37:37.425Z,16.42
2023-01-23T00:40:07.074Z,16.83
2023-01-23T00:42:35.665Z,17.80
2023-01-23T00:45:04.514Z,16.38
2023-01-23T00:47:33.103Z,16.90
2023-01-23T00:50:03.203Z,16.30
2023-01-23T00:52:31.676Z,15.75
2023-01-23T00:55:00.119Z,16.90
2023-01-23T00:57:28.947Z,17.33
2023-01-23T00:59:57.348Z,17.17
2023-01-23T01:02:26.040Z,16.80
2023-01-23T01:04:54.457Z,17.40
2023-01-23T01:07:24.420Z,16.25
2023-01-23T01:09:53.044Z,17.20
2023-01-23T01:12:21.702Z,16.58
2023-01-23T01:14:50.266Z,17.33
2023-01-23T01:17:18.794Z,16.45
2023-01-23T01:19:47.274Z,16.83
2023-01-23T01:22:15.843Z,17.70
2023-01-23T01:24:46.070Z,16.92
2023-01-23T01:27:14.657Z,17.38
2023-01-23T01:29:43.208Z,16.50
2023-01-23T01:32:11.712Z,17.15
2023-01-23T01:34:40.089Z,16.67
2023-01-23T01:37:08.560Z,17.75
2023-01-23T01:39:37.245Z,17.60
2023-01-23T01:42:07.145Z,17.27
2023-01-23T01:44:54.327Z,15.77
2023-01-23T01:47:23.190Z,15.63
2023-01-23T01:49:53.505Z,16.65
2023-01-23T01:52:24.277Z,16.27
2023-01-23T01:54:56.992Z,17.35
2023-01-23T01:57:29.888Z,17.13
2023-01-23T02:00:01.775Z,16.65
2023-01-23T02:02:34.009Z,16.88
2023-01-23T02:05:05.346Z,18.15
2023-01-23T02:07:38.359Z,15.30
2023-01-23T02:10:09.276Z,15.75
2023-01-23T02:12:39.945Z,16.08
2023-01-23T02:15:10.082Z,16.85
2023-01-23T02:17:38.855Z,16.42
2023-01-23T02:20:14.322Z,17.33
2023-01-23T02:22:55.812Z,16.10
2023-01-23T02:25:31.686Z,17.02
2023-01-23T02:28:02.363Z,17.42
2023-01-23T02:30:30.921Z,16.52
2023-01-23T02:33:09.252Z,16.75
2023-01-23T02:35:38.925Z,15.93
2023-01-23T02:38:07.689Z,16.88
2023-01-23T02:40:38.453Z,16.63
2023-01-23T02:43:11.946Z,17.85
2023-01-23T02:45:40.868Z,16.60
2023-01-23T02:48:09.847Z,16.17
2023-01-23T02:50:38.384Z,16.70
2023-01-23T02:53:07.167Z,16.38
2023-01-23T02:55:37.833Z,17.42
2023-01-23T02:58:21.711Z,17.63
2023-01-23T03:00:50.496Z,16.08
2023-01-23T03:03:18.939Z,16.45
2023-01-23T03:05:48.455Z,15.55
2023-01-23T03:08:17.044Z,15.85
2023-01-23T03:10:45.573Z,16.98
2023-01-23T03:13:17.250Z,16.95
2023-01-23T03:15:45.666Z,17.58
2023-01-23T03:18:14.181Z,16.95
2023-01-23T03:20:43.393Z,16.30
2023-01-23T03:23:12.013Z,18.15
2023-01-23T03:25:44.585Z,16.33
2023-01-23T03:28:33.253Z,16.50
2023-01-23T03:31:02.290Z,16.80
2023-01-23T03:33:30.815Z,18.17
2023-01-23T03:35:59.232Z,16.50
2023-01-23T03:38:27.717Z,15.95
2023-01-23T03:41:28.132Z,16.58
2023-01-23T03:43:57.742Z,15.15
2023-01-23T03:46:28.302Z,15.75
2023-01-23T03:48:56.800Z,15.77
2023-01-23T03:51:25.334Z,16.10
2023-01-23T03:53:54.099Z,16.15
2023-01-23T03:56:22.676Z,15.63
2023-01-23T03:58:51.121Z,15.77
2023-01-23T04:01:19.922Z,16.45
2023-01-23T04:03:50.910Z,16.25
2023-01-23T04:06:19.870Z,16.08
2023-01-23T04:08:48.430Z,15.73
2023-01-23T04:11:16.983Z,16.88
2023-01-23T04:13:48.195Z,17.35
2023-01-23T04:16:17.007Z,15.27
2023-01-23T04:18:45.518Z,16.13
2023-01-23T04:21:15.471Z,15.80
2023-01-23T04:23:43.990Z,15.45
2023-01-23T04:26:12.392Z,15.38
2023-01-23T04:28:41.287Z,15.20
2023-01-23T04:31:10.193Z,15.45
2023-01-23T04:33:38.606Z,15.25
2023-01-23T04:36:08.287Z,15.50
2023-01-23T04:38:38.233Z,17.13
2023-01-23T04:41:06.879Z,16.35
2023-01-23T04:43:35.850Z,15.50
2023-01-23T04:46:04.415Z,15.52
2023-01-23T04:48:32.885Z,15.57
2023-01-23T04:51:01.354Z,17.73
2023-01-23T04:53:29.949Z,16.95
2023-01-23T04:55:59.864Z,15.02
2023-01-23T04:58:28.530Z,16.55
2023-01-23T05:01:02.751Z,15.43
2023-01-23T05:03:32.815Z,18.42
2023-01-23T05:06:01.384Z,20.45
2023-01-23T05:08:29.817Z,17.10
2023-01-23T05:10:59.656Z,16.90
2023-01-23T05:13:28.035Z,17.85
2023-01-23T05:15:58.265Z,16.27
2023-01-23T05:18:27.123Z,16.15
2023-01-23T05:20:55.490Z,16.20
2023-01-23T05:23:23.969Z,17.10
2023-01-23T05:25:52.609Z,18.95
2023-01-23T05:28:22.809Z,16.92
2023-01-23T05:30:51.381Z,17.10
2023-01-23T05:33:19.955Z,16.17
2023-01-23T05:35:48.368Z,18.08
2023-01-23T05:38:16.889Z,16.10
2023-01-23T05:40:45.544Z,17.05
2023-01-23T05:43:15.719Z,15.95
2023-01-23T05:45:45.498Z,16.85
2023-01-23T05:48:13.936Z,16.35
2023-01-23T05:50:42.647Z,16.83
2023-01-23T05:53:11.404Z,16.65
2023-01-23T05:55:40.155Z,15.80
2023-01-23T05:58:08.657Z,16.55
2023-01-23T06:00:37.621Z,15.35
2023-01-23T06:03:09.803Z,15.45
2023-01-23T06:05:38.703Z,17.40
2023-01-23T06:08:07.884Z,16.20
2023-01-23T06:10:38.202Z,16.80
2023-01-23T06:13:06.682Z,15.20
2023-01-23T06:15:35.209Z,16.90
2023-01-23T06:18:03.969Z,16.25
2023-01-23T06:20:33.811Z,16.42
2023-01-23T06:23:02.247Z,15.40
2023-01-23T06:25:30.873Z,17.05
2023-01-23T06:27:59.368Z,16.02
2023-01-23T06:30:28.337Z,15.73
2023-01-23T06:32:56.971Z,15.10
2023-01-23T06:35:25.706Z,14.50
2023-01-23T06:37:55.689Z,14.88
2023-01-23T06:40:24.118Z,13.90
2023-01-23T06:42:55.927Z,14.05
2023-01-23T06:45:24.685Z,15.98
2023-01-23T06:47:53.490Z,15.88
2023-01-23T06:50:22.444Z,13.73
2023-01-23T06:52:51.075Z,14.85
2023-01-23T06:55:21.243Z,15.02
2023-01-23T06:57:50.027Z,14.57
2023-01-23T07:00:23.602Z,15.25
2023-01-23T07:02:53.111Z,14.98
2023-01-23T07:05:22.316Z,14.32
2023-01-23T07:07:53.426Z,13.77
2023-01-23T07:10:24.175Z,15.45
2023-01-23T07:12:52.909Z,13.45
2023-01-23T07:15:21.654Z,13.77
2023-01-23T07:17:50.419Z,14.63
2023-01-23T07:20:19.719Z,15.93
2023-01-23T07:22:49.911Z,13.60
2023-01-23T07:25:18.467Z,14.95
2023-01-23T07:27:48.662Z,14.90
2023-01-23T07:30:18.937Z,14.48
2023-01-23T07:32:47.703Z,14.45
2023-01-23T07:35:16.434Z,13.05
2023-01-23T07:37:44.882Z,14.88
2023-01-23T07:40:14.433Z,15.68
2023-01-23T07:42:42.899Z,14.68
2023-01-23T07:45:14.175Z,15.10
2023-01-23T07:47:44.815Z,15.70
2023-01-23T07:50:16.247Z,12.85
2023-01-23T07:52:44.801Z,14.00
2023-01-23T07:55:22.099Z,14.73
2023-01-23T07:57:50.777Z,15.60
2023-01-23T08:00:24.294Z,14.23
2023-01-23T08:02:53.403Z,14.50
2023-01-23T08:05:21.984Z,14.18
2023-01-23T08:07:52.292Z,14.00
2023-01-23T08:10:26.620Z,14.70
2023-01-23T08:12:55.211Z,14.07
2023-01-23T08:15:25.125Z,16.38
2023-01-23T08:17:54.703Z,15.13
2023-01-23T08:20:23.627Z,14.90
2023-01-23T08:22:52.579Z,15.43
2023-01-23T08:25:21.059Z,14.50
2023-01-23T08:27:49.558Z,16.27
2023-01-23T08:30:18.844Z,15.50
2023-01-23T08:32:49.113Z,14.40
2023-01-23T08:35:17.743Z,14.82
2023-01-23T08:37:46.260Z,14.20
2023-01-23T08:40:14.892Z,14.20
2023-01-23T08:42:44.535Z,15.35
2023-01-23T08:45:17.043Z,16.92
2023-01-23T08:47:45.811Z,16.40
2023-01-23T08:50:15.867Z,16.15
2023-01-23T08:52:44.521Z,16.42
2023-01-23T08:55:13.823Z,16.02
2023-01-23T08:57:42.266Z,17.30
2023-01-23T09:00:13.032Z,16.02
2023-01-23T09:02:41.591Z,16.15
2023-01-23T09:05:10.696Z,15.50
2023-01-23T09:07:40.952Z,13.73
2023-01-23T09:10:11.317Z,15.23
2023-01-23T09:12:42.686Z,15.40
2023-01-23T09:15:11.997Z,15.32
2023-01-23T09:17:40.651Z,14.65
2023-01-23T09:20:12.113Z,14.43
2023-01-23T09:22:42.962Z,14.02
2023-01-23T09:25:12.225Z,14.55
2023-01-23T09:27:41.428Z,13.77
2023-01-23T09:30:11.313Z,13.85
2023-01-23T09:32:39.943Z,15.23
2023-01-23T09:35:09.482Z,13.45
2023-01-23T09:37:58.467Z,13.38
2023-01-23T09:43:17.000Z,13.07
2023-01-23T09:45:54.800Z,12.23
2023-01-23T09:48:29.600Z,12.43
2023-01-23T09:51:03.288Z,13.00
2023-01-23T09:53:38.315Z,12.45
2023-01-23T09:56:19.079Z,12.20
2023-01-23T09:59:00.285Z,11.50
2023-01-23T10:01:31.881Z,16.50
2023-01-23T10:04:02.102Z,11.18
2023-01-23T10:06:32.915Z,11.65
2023-01-23T10:09:27.166Z,10.57
2023-01-23T10:12:05.404Z,10.52
2023-01-23T10:14:50.768Z,16.13
2023-01-23T10:17:25.516Z,10.73
2023-01-23T10:20:15.643Z,13.93
2023-01-23T10:22:57.597Z,11.82
2023-01-23T10:25:33.263Z,9.43
2023-01-23T10:28:19.341Z,11.30
2023-01-23T10:30:56.259Z,11.98
2023-01-23T10:33:34.639Z,10.68
2023-01-23T10:36:15.101Z,10.90
2023-01-23T10:39:00.118Z,9.93
2023-01-23T10:41:32.260Z,11.93
2023-01-23T10:44:15.440Z,9.65
2023-01-23T10:46:50.875Z,10.10
2023-01-23T10:49:36.403Z,9.95
2023-01-23T10:52:10.455Z,10.07
2023-01-23T10:54:48.764Z,9.73
2023-01-23T10:57:24.841Z,9.70
2023-01-23T11:00:07.016Z,9.13
2023-01-23T11:02:41.237Z,9.52
2023-01-23T11:05:52.573Z,8.93
2023-01-23T11:08:31.977Z,9.40
2023-01-23T11:11:23.035Z,9.00
2023-01-23T11:14:09.569Z,9.35
2023-01-23T11:16:46.388Z,9.52
2023-01-23T11:19:22.643Z,9.40
2023-01-23T11:21:58.155Z,9.82
2023-01-23T11:24:41.435Z,9.77
2023-01-23T11:27:24.320Z,10.57
2023-01-23T11:30:43.030Z,10.63
2023-01-23T11:33:51.818Z,10.90
2023-01-23T11:36:50.565Z,11.73
2023-01-23T11:39:44.561Z,10.70
2023-01-23T11:42:16.273Z,10.80
2023-01-23T11:44:46.888Z,10.95
2023-01-23T11:47:42.757Z,10.32
2023-01-23T11:50:54.884Z,9.50
2023-01-23T11:53:42.997Z,10.65
2023-01-23T11:56:27.211Z,10.98
2023-01-23T11:59:17.943Z,10.68
2023-01-23T12:02:03.691Z,10.60
2023-01-23T12:05:04.129Z,8.95
2023-01-23T12:07:43.184Z,9.88
2023-01-23T12:10:25.144Z,9.93
2023-01-23T12:13:20.884Z,9.30
2023-01-23T12:16:07.558Z,9.73
2023-01-23T12:18:45.095Z,11.13
2023-01-23T12:21:24.585Z,9.73
2023-01-23T12:24:12.543Z,10.90
2023-01-23T12:26:58.974Z,11.30
2023-01-23T12:29:45.646Z,11.05
2023-01-23T12:32:33.256Z,10.82
2023-01-23T12:35:19.053Z,10.77
2023-01-23T12:38:04.483Z,11.68
2023-01-23T12:40:48.277Z,11.05
2023-01-23T12:43:24.718Z,10.95
2023-01-23T12:46:06.964Z,12.48
2023-01-23T12:48:40.294Z,12.60
2023-01-23T12:51:13.693Z,12.73
2023-01-23T12:53:45.993Z,12.65
2023-01-23T12:56:25.866Z,12.65
2023-01-23T12:59:08.302Z,12.88
2023-01-23T13:01:50.657Z,12.18
2023-01-23T13:04:44.314Z,13.25
2023-01-23T13:07:38.322Z,14.02
2023-01-23T13:10:26.441Z,14.00
2023-01-23T13:13:02.938Z,13.52
2023-01-23T13:15:41.842Z,13.20
2023-01-23T13:18:24.445Z,13.90
2023-01-23T13:21:16.074Z,13.48
2023-01-23T13:23:45.155Z,13.05
2023-01-23T13:26:29.000Z,13.73
2023-01-23T13:29:04.274Z,14.20
2023-01-23T13:31:40.153Z,13.45
2023-01-23T13:34:38.022Z,15.30
2023-01-23T13:37:51.194Z,14.13
2023-01-23T13:40:25.646Z,14.43
2023-01-23T13:42:54.287Z,15.05
2023-01-23T13:45:32.012Z,14.73
2023-01-23T14:23:35.287Z,14.52
2023-01-23T14:26:05.937Z,14.48
2023-01-23T14:28:34.539Z,13.57
2023-01-23T14:31:06.682Z,16.23
2023-01-23T14:33:45.957Z,14.82
2023-01-23T14:36:19.693Z,15.50
2023-01-23T14:38:51.088Z,15.15
2023-01-23T14:41:31.723Z,13.52
2023-01-23T14:44:03.477Z,14.98
2023-01-23T14:46:40.146Z,14.25
2023-01-23T14:49:15.703Z,14.10
2023-01-23T14:51:57.115Z,14.63
2023-01-23T14:54:29.621Z,14.05
2023-01-23T14:57:08.047Z,13.82
2023-01-23T14:59:42.360Z,14.25
2023-01-23T15:02:26.874Z,14.80
2023-01-23T15:05:08.874Z,13.70
2023-01-23T15:07:46.085Z,13.95
2023-01-23T15:10:17.481Z,16.80
2023-01-23T15:12:53.071Z,14.85
2023-01-23T15:15:24.922Z,14.35
2023-01-23T15:17:56.010Z,14.32
2023-01-23T15:20:36.319Z,14.68
2023-01-23T15:23:24.973Z,15.82
2023-01-23T15:26:25.326Z,15.20
2023-01-23T15:28:55.652Z,15.13
2023-01-23T15:31:27.527Z,15.77
2023-01-23T15:33:58.494Z,17.02
2023-01-23T15:36:30.480Z,15.57
2023-01-23T15:39:00.943Z,16.17
2023-01-23T15:41:40.399Z,15.35
2023-01-23T15:44:14.169Z,16.30
2023-01-23T15:46:43.076Z,15.02
2023-01-23T15:49:24.338Z,17.17
2023-01-23T15:51:56.111Z,16.60
2023-01-23T15:54:32.084Z,14.88
2023-01-23T15:57:07.565Z,15.55
2023-01-23T15:59:37.943Z,15.98
2023-01-23T16:02:12.826Z,16.10
2023-01-23T16:04:47.708Z,15.77
2023-01-23T16:07:23.851Z,16.27
2023-01-23T16:09:55.157Z,14.48
2023-01-23T16:12:29.343Z,16.00
2023-01-23T16:14:59.165Z,14.98
2023-01-23T16:17:27.767Z,15.00
2023-01-23T16:19:56.265Z,15.07
2023-01-23T16:22:29.284Z,16.40
2023-01-23T16:25:02.330Z,15.05
2023-01-23T16:27:32.187Z,15.00
2023-01-23T16:30:00.633Z,14.68
2023-01-23T16:32:29.310Z,14.27
2023-01-23T16:35:13.154Z,15.63
2023-01-23T16:37:53.698Z,14.57
2023-01-23T16:40:29.502Z,14.95
2023-01-23T16:43:00.005Z,14.70
2023-01-23T16:45:34.171Z,15.65
2023-01-23T16:48:03.904Z,16.20
2023-01-23T16:50:37.094Z,14.77
2023-01-23T16:53:12.544Z,15.18
2023-01-23T16:55:45.128Z,15.30
2023-01-23T16:58:18.502Z,13.75
2023-01-23T17:00:47.951Z,13.98
2023-01-23T17:03:27.685Z,13.80
2023-01-23T17:05:56.764Z,14.13
2023-01-23T17:08:26.455Z,13.20
2023-01-23T17:11:04.298Z,14.27
2023-01-23T17:13:35.763Z,13.75
2023-01-23T17:16:12.745Z,14.30
2023-01-23T17:18:50.730Z,14.10
2023-01-23T17:21:23.492Z,14.77
2023-01-23T17:23:52.235Z,12.57
2023-01-23T17:26:22.195Z,12.25
2023-01-23T17:28:53.852Z,13.00
2023-01-23T17:31:32.692Z,14.25
2023-01-23T17:34:04.275Z,13.05
2023-01-23T17:36:33.825Z,13.75
2023-01-23T17:39:02.586Z,13.18
2023-01-23T17:41:41.310Z,12.63
2023-01-23T17:44:10.062Z,12.77
2023-01-23T17:46:43.042Z,12.85
2023-01-23T17:49:29.230Z,12.55
2023-01-23T17:52:01.474Z,13.48
2023-01-23T17:54:30.061Z,13.52
2023-01-23T17:57:00.026Z,12.88
2023-01-23T17:59:34.703Z,14.10
2023-01-23T18:02:29.804Z,13.77
2023-01-23T18:05:01.049Z,12.75
2023-01-23T18:07:29.916Z,13.43
2023-01-23T18:09:58.728Z,13.80
2023-01-23T18:12:40.963Z,13.00
2023-01-23T18:15:18.124Z,12.05
2023-01-23T18:17:56.038Z,13.45
2023-01-23T18:20:35.575Z,12.95
2023-01-23T18:23:12.920Z,12.10
2023-01-23T18:25:46.157Z,12.18
2023-01-23T18:28:24.028Z,13.63
2023-01-23T18:31:00.724Z,11.52
2023-01-23T18:33:48.502Z,11.57
2023-01-23T18:36:31.158Z,11.48
2023-01-23T18:39:16.453Z,11.25
2023-01-23T18:42:04.734Z,11.52
2023-01-23T18:44:35.918Z,12.38
2023-01-23T18:47:11.727Z,11.95
2023-01-23T18:49:44.274Z,13.48
2023-01-23T18:52:18.028Z,14.13
2023-01-23T18:54:54.676Z,14.18
2023-01-23T18:57:45.323Z,12.25
2023-01-23T19:00:19.897Z,12.82
2023-01-23T19:02:57.095Z,14.50
2023-01-23T19:05:31.374Z,13.02
2023-01-23T19:08:01.292Z,13.90
2023-01-23T19:10:47.571Z,14.43
2023-01-23T19:13:21.058Z,12.80
2023-01-23T19:16:05.492Z,13.63
2023-01-23T19:18:45.834Z,15.38
2023-01-23T19:21:23.008Z,15.35
2023-01-23T19:23:58.017Z,15.85
2023-01-23T19:26:29.533Z,15.73
2023-01-23T19:29:05.649Z,15.35
2023-01-23T19:32:06.529Z,16.40
2023-01-23T19:34:35.957Z,16.50
2023-01-23T19:37:08.660Z,14.90
2023-01-23T19:39:51.635Z,17.15
2023-01-23T19:42:58.730Z,15.60
2023-01-23T19:45:36.047Z,13.68
2023-01-23T19:48:06.845Z,15.60
2023-01-23T19:50:35.951Z,16.58
2023-01-23T19:53:05.670Z,16.65
2023-01-23T19:55:38.683Z,16.85
2023-01-23T19:58:08.236Z,17.52
2023-01-23T20:00:37.093Z,17.02
2023-01-23T20:03:16.552Z,17.15
2023-01-23T20:05:45.306Z,18.15
2023-01-23T20:08:13.759Z,17.27
2023-01-23T20:10:43.615Z,18.33
2023-01-23T20:13:12.716Z,17.17
2023-01-23T20:15:44.386Z,17.50
2023-01-23T20:18:16.228Z,17.33
2023-01-23T20:20:44.829Z,17.30
2023-01-23T20:23:14.182Z,17.13
2023-01-23T20:25:42.641Z,15.27
2023-01-23T20:28:13.941Z,17.38
2023-01-23T20:30:42.562Z,16.90
2023-01-23T20:33:11.809Z,17.73
2023-01-23T20:35:43.785Z,16.90
2023-01-23T20:38:13.298Z,17.25
2023-01-23T20:40:43.379Z,16.20
2023-01-23T20:43:15.230Z,15.60
2023-01-23T20:45:50.424Z,15.52
2023-01-23T20:48:24.467Z,17.27
2023-01-23T20:50:58.655Z,16.58
2023-01-23T20:53:38.726Z,15.35
2023-01-23T20:56:13.488Z,17.67
2023-01-23T20:59:01.981Z,15.13
2023-01-23T21:01:53.709Z,17.30
2023-01-23T21:04:24.049Z,19.20
2023-01-23T21:06:57.291Z,17.20
2023-01-23T21:09:26.061Z,17.27
2023-01-23T21:11:55.386Z,16.08
2023-01-23T21:14:27.368Z,16.20
2023-01-23T21:16:59.092Z,18.15
2023-01-23T21:19:28.375Z,16.00
2023-01-23T21:22:06.431Z,17.52
2023-01-23T21:24:36.042Z,17.35
2023-01-23T21:27:05.397Z,14.98
2023-01-23T21:29:34.737Z,16.65
2023-01-23T21:32:03.604Z,15.32
2023-01-23T21:34:32.782Z,17.27
2023-01-23T21:37:03.634Z,15.05
2023-01-23T21:39:32.609Z,16.10
2023-01-23T21:42:01.274Z,18.05
2023-01-23T21:44:29.735Z,16.85
2023-01-23T21:46:58.252Z,15.93
2023-01-23T21:49:26.889Z,15.82
2023-01-23T21:51:55.584Z,15.95
2023-01-23T21:54:25.724Z,16.08
2023-01-23T21:56:54.144Z,16.42
2023-01-23T21:59:22.652Z,15.45
2023-01-23T22:01:50.426Z,14.55
2023-01-23T22:04:22.305Z,15.43
2023-01-23T22:06:54.862Z,15.32
2023-01-23T22:09:26.213Z,14.85
2023-01-23T22:11:55.663Z,14.80
2023-01-23T22:14:24.242Z,14.27
2023-01-23T22:16:52.874Z,14.73
2023-01-23T22:19:25.637Z,15.40
2023-01-23T22:21:55.076Z,14.52
2023-01-23T22:24:25.393Z,13.73
2023-01-23T22:26:53.806Z,14.60
2023-01-23T22:29:22.800Z,15.45
2023-01-23T22:31:52.140Z,12.73
2023-01-23T22:34:21.343Z,13.70
2023-01-23T22:36:49.973Z,12.80
2023-01-23T22:39:19.742Z,13.48
2023-01-23T22:41:51.045Z,12.88
2023-01-23T22:44:20.014Z,13.23
2023-01-23T22:46:51.384Z,12.55
2023-01-23T22:49:20.928Z,12.38
2023-01-23T22:51:51.552Z,13.48
2023-01-23T22:54:20.819Z,13.10
2023-01-23T22:56:50.814Z,12.63
2023-01-23T22:59:19.615Z,14.52
2023-01-23T23:01:48.756Z,13.40
2023-01-23T23:04:17.905Z,14.63
2023-01-23T23:06:46.773Z,13.05
2023-01-23T23:09:15.795Z,15.73
2023-01-23T23:11:47.305Z,13.85
2023-01-23T23:14:17.495Z,13.98
2023-01-23T23:16:45.974Z,13.93
2023-01-23T23:19:14.426Z,13.02
2023-01-23T23:21:42.848Z,14.90
2023-01-23T23:24:14.028Z,14.40
2023-01-23T23:26:42.870Z,13.65
2023-01-23T23:29:11.465Z,13.45
2023-01-23T23:31:41.947Z,13.10
2023-01-23T23:34:10.484Z,13.07
2023-01-23T23:36:38.931Z,12.60
2023-01-23T23:39:07.571Z,13.93
2023-01-23T23:41:36.092Z,13.73
2023-01-23T23:44:04.962Z,13.40
2023-01-23T23:46:33.510Z,12.70
2023-01-23T23:49:03.409Z,12.60
2023-01-23T23:51:31.984Z,12.93
2023-01-23T23:54:00.572Z,13.07
2023-01-23T23:56:32.051Z,13.18
2023-01-23T23:59:00.774Z,14.02
